Breesport, New York
Current Conditions -  °F | °C
As of 7:53 AM on Saturday 25 Oct 2014 (Local Time) from KELM Reporting Station
Overcast Overcast  
Wind Chill:   Ceiling: 4800
Heat Index:   Visibility: 10mi
Dew Point:   Wind: 6mph
Humidity: 82%   Direction: 220°SW
Pressure: 29.87"   Gusts: NA
Location:  42.17°N, 76.73°W
Report Text: KELM 251153Z 22005KT 10SM OVC048 06/03 A2987 RMK AO2 SLP119 T00610033 10061 20022 56010
Loading
Personal Weather Stations






























Interactive Weather Map
Tropical Storm Tracking
New forecast layout! Learn more

10-Day Weather Forecast

Advertisements
Track Severe Weather on mobile